sensor_id;sensor_type;location;lat;lon;timestamp;pressure;altitude;pressure_sealevel;temperature;humidity
57594;BME280;43423;46.510;6.686;2023-07-13T00:02:15;96538.44;;;22.29;67.39
57594;BME280;43423;46.510;6.686;2023-07-13T00:04:40;96539.06;;;21.70;69.76
57594;BME280;43423;46.510;6.686;2023-07-13T00:07:07;96532.91;;;21.72;69.65
57594;BME280;43423;46.510;6.686;2023-07-13T00:09:32;96542.22;;;22.03;69.57
57594;BME280;43423;46.510;6.686;2023-07-13T00:11:58;96544.66;;;22.07;67.83
57594;BME280;43423;46.510;6.686;2023-07-13T00:14:25;96532.22;;;22.15;68.70
57594;BME280;43423;46.510;6.686;2023-07-13T00:16:51;96530.00;;;21.85;68.46
57594;BME280;43423;46.510;6.686;2023-07-13T00:19:17;96529.22;;;21.77;68.85
57594;BME280;43423;46.510;6.686;2023-07-13T00:21:43;96518.22;;;21.79;68.27
57594;BME280;43423;46.510;6.686;2023-07-13T00:24:11;96517.50;;;21.86;67.52
57594;BME280;43423;46.510;6.686;2023-07-13T00:26:41;96514.81;;;21.65;68.52
57594;BME280;43423;46.510;6.686;2023-07-13T00:29:11;96521.25;;;21.53;69.44
57594;BME280;43423;46.510;6.686;2023-07-13T00:31:37;96519.47;;;21.34;69.52
57594;BME280;43423;46.510;6.686;2023-07-13T00:34:03;96516.19;;;21.23;68.81
57594;BME280;43423;46.510;6.686;2023-07-13T00:36:30;96524.16;;;21.39;67.75
57594;BME280;43423;46.510;6.686;2023-07-13T00:38:56;96512.97;;;21.11;68.40
57594;BME280;43423;46.510;6.686;2023-07-13T00:41:22;96517.78;;;21.31;67.30
57594;BME280;43423;46.510;6.686;2023-07-13T00:43:48;96515.25;;;21.49;67.78
57594;BME280;43423;46.510;6.686;2023-07-13T00:46:24;96520.66;;;21.46;68.30
57594;BME280;43423;46.510;6.686;2023-07-13T00:48:51;96507.19;;;21.73;66.49
57594;BME280;43423;46.510;6.686;2023-07-13T00:51:25;96506.69;;;21.46;66.65
57594;BME280;43423;46.510;6.686;2023-07-13T00:53:53;96514.88;;;21.44;67.83
57594;BME280;43423;46.510;6.686;2023-07-13T00:56:20;96502.97;;;21.52;68.85
57594;BME280;43423;46.510;6.686;2023-07-13T00:58:45;96518.41;;;21.45;69.28
57594;BME280;43423;46.510;6.686;2023-07-13T01:01:12;96515.94;;;21.34;70.47
57594;BME280;43423;46.510;6.686;2023-07-13T01:03:38;96512.69;;;21.51;70.51
57594;BME280;43423;46.510;6.686;2023-07-13T01:06:06;96504.28;;;21.51;71.38
57594;BME280;43423;46.510;6.686;2023-07-13T01:08:31;96507.78;;;21.43;71.03
57594;BME280;43423;46.510;6.686;2023-07-13T01:10:58;96507.47;;;21.55;72.24
57594;BME280;43423;46.510;6.686;2023-07-13T01:13:24;96497.19;;;21.50;72.19
57594;BME280;43423;46.510;6.686;2023-07-13T01:15:51;96506.44;;;21.37;73.76
57594;BME280;43423;46.510;6.686;2023-07-13T01:18:22;96502.50;;;21.68;72.56
57594;BME280;43423;46.510;6.686;2023-07-13T01:20:57;96506.06;;;21.69;70.33
57594;BME280;43423;46.510;6.686;2023-07-13T01:23:24;96506.47;;;21.73;69.93
57594;BME280;43423;46.510;6.686;2023-07-13T01:25:51;96498.19;;;21.60;70.15
57594;BME280;43423;46.510;6.686;2023-07-13T01:28:18;96517.47;;;21.42;70.35
57594;BME280;43423;46.510;6.686;2023-07-13T01:30:45;96508.56;;;21.52;70.95
57594;BME280;43423;46.510;6.686;2023-07-13T01:33:16;96507.28;;;21.53;70.84
57594;BME280;43423;46.510;6.686;2023-07-13T01:35:43;96510.56;;;21.80;69.17
57594;BME280;43423;46.510;6.686;2023-07-13T01:38:10;96502.53;;;21.76;69.57
57594;BME280;43423;46.510;6.686;2023-07-13T01:40:36;96511.09;;;21.70;70.12
57594;BME280;43423;46.510;6.686;2023-07-13T01:43:02;96507.94;;;21.74;69.92
57594;BME280;43423;46.510;6.686;2023-07-13T01:45:28;96497.78;;;21.56;71.48
57594;BME280;43423;46.510;6.686;2023-07-13T01:47:54;96505.97;;;21.54;72.33
57594;BME280;43423;46.510;6.686;2023-07-13T01:50:20;96503.03;;;21.59;71.66
57594;BME280;43423;46.510;6.686;2023-07-13T01:52:46;96506.25;;;21.71;71.47
57594;BME280;43423;46.510;6.686;2023-07-13T01:55:11;96509.59;;;21.69;71.66
57594;BME280;43423;46.510;6.686;2023-07-13T01:57:37;96501.66;;;21.89;69.56
57594;BME280;43423;46.510;6.686;2023-07-13T02:00:04;96502.28;;;21.59;72.15
57594;BME280;43423;46.510;6.686;2023-07-13T02:02:31;96499.63;;;21.53;72.47
57594;BME280;43423;46.510;6.686;2023-07-13T02:04:57;96505.03;;;21.51;71.02
57594;BME280;43423;46.510;6.686;2023-07-13T02:07:22;96502.38;;;21.45;72.18
57594;BME280;43423;46.510;6.686;2023-07-13T02:09:48;96494.69;;;21.38;71.81
57594;BME280;43423;46.510;6.686;2023-07-13T02:12:13;96489.88;;;21.46;70.19
57594;BME280;43423;46.510;6.686;2023-07-13T02:14:39;96485.50;;;21.59;69.22
57594;BME280;43423;46.510;6.686;2023-07-13T02:17:05;96484.00;;;21.58;69.43
57594;BME280;43423;46.510;6.686;2023-07-13T02:19:31;96483.97;;;21.50;69.95
57594;BME280;43423;46.510;6.686;2023-07-13T02:21:57;96485.59;;;21.45;69.46
57594;BME280;43423;46.510;6.686;2023-07-13T02:24:22;96493.28;;;21.53;69.44
57594;BME280;43423;46.510;6.686;2023-07-13T02:26:48;96492.38;;;21.58;68.78
57594;BME280;43423;46.510;6.686;2023-07-13T02:29:14;96483.91;;;21.42;69.61
57594;BME280;43423;46.510;6.686;2023-07-13T02:31:39;96480.34;;;21.13;71.05
57594;BME280;43423;46.510;6.686;2023-07-13T02:34:05;96476.63;;;21.11;70.88
57594;BME280;43423;46.510;6.686;2023-07-13T02:36:31;96473.91;;;20.98;71.45
57594;BME280;43423;46.510;6.686;2023-07-13T02:39:00;96470.81;;;21.09;72.16
57594;BME280;43423;46.510;6.686;2023-07-13T02:41:26;96465.22;;;21.09;70.83
57594;BME280;43423;46.510;6.686;2023-07-13T02:43:52;96474.72;;;21.06;70.93
57594;BME280;43423;46.510;6.686;2023-07-13T02:46:18;96463.25;;;21.25;70.29
57594;BME280;43423;46.510;6.686;2023-07-13T02:48:45;96465.63;;;21.13;70.73
57594;BME280;43423;46.510;6.686;2023-07-13T02:51:10;96462.22;;;21.07;70.82
57594;BME280;43423;46.510;6.686;2023-07-13T02:53:37;96468.72;;;21.30;69.81
57594;BME280;43423;46.510;6.686;2023-07-13T02:56:04;96461.84;;;21.31;70.31
57594;BME280;43423;46.510;6.686;2023-07-13T02:58:30;96464.38;;;21.22;70.29
57594;BME280;43423;46.510;6.686;2023-07-13T03:00:56;96464.06;;;21.33;69.84
57594;BME280;43423;46.510;6.686;2023-07-13T03:03:23;96455.59;;;21.17;70.67
57594;BME280;43423;46.510;6.686;2023-07-13T03:05:58;96452.44;;;21.21;69.75
57594;BME280;43423;46.510;6.686;2023-07-13T03:08:25;96465.13;;;21.22;69.51
57594;BME280;43423;46.510;6.686;2023-07-13T03:11:02;96470.22;;;21.31;69.16
57594;BME280;43423;46.510;6.686;2023-07-13T03:13:28;96470.50;;;21.49;68.49
57594;BME280;43423;46.510;6.686;2023-07-13T03:15:54;96466.38;;;21.42;68.26
57594;BME280;43423;46.510;6.686;2023-07-13T03:18:20;96474.00;;;21.34;68.35
57594;BME280;43423;46.510;6.686;2023-07-13T03:20:45;96472.94;;;21.24;69.25
57594;BME280;43423;46.510;6.686;2023-07-13T03:23:11;96480.94;;;21.19;70.46
57594;BME280;43423;46.510;6.686;2023-07-13T03:25:36;96497.06;;;21.06;72.15
57594;BME280;43423;46.510;6.686;2023-07-13T03:28:02;96494.34;;;20.92;73.40
57594;BME280;43423;46.510;6.686;2023-07-13T03:30:27;96501.41;;;20.86;73.89
57594;BME280;43423;46.510;6.686;2023-07-13T03:32:53;96508.69;;;20.68;76.33
57594;BME280;43423;46.510;6.686;2023-07-13T03:35:18;96502.34;;;20.68;74.25
57594;BME280;43423;46.510;6.686;2023-07-13T03:37:44;96513.09;;;20.43;74.57
57594;BME280;43423;46.510;6.686;2023-07-13T03:40:10;96516.16;;;20.31;74.61
57594;BME280;43423;46.510;6.686;2023-07-13T03:42:37;96524.38;;;20.50;75.33
57594;BME280;43423;46.510;6.686;2023-07-13T03:45:03;96531.03;;;20.47;78.16
57594;BME280;43423;46.510;6.686;2023-07-13T03:47:28;96529.75;;;20.48;79.59
57594;BME280;43423;46.510;6.686;2023-07-13T03:49:54;96536.09;;;20.49;79.82
57594;BME280;43423;46.510;6.686;2023-07-13T03:52:20;96544.91;;;20.40;80.60
57594;BME280;43423;46.510;6.686;2023-07-13T03:54:45;96535.91;;;20.33;80.06
57594;BME280;43423;46.510;6.686;2023-07-13T03:57:11;96538.31;;;20.50;80.04
57594;BME280;43423;46.510;6.686;2023-07-13T03:59:37;96537.66;;;20.57;79.90
57594;BME280;43423;46.510;6.686;2023-07-13T04:02:03;96543.03;;;20.76;79.21
57594;BME280;43423;46.510;6.686;2023-07-13T04:04:29;96549.22;;;20.61;78.38
57594;BME280;43423;46.510;6.686;2023-07-13T04:06:57;96547.13;;;20.75;77.29
57594;BME280;43423;46.510;6.686;2023-07-13T04:09:24;96544.88;;;20.74;76.52
57594;BME280;43423;46.510;6.686;2023-07-13T04:11:50;96547.41;;;20.64;75.22
57594;BME280;43423;46.510;6.686;2023-07-13T04:14:16;96539.28;;;20.53;77.39
57594;BME280;43423;46.510;6.686;2023-07-13T04:16:42;96542.69;;;20.59;78.56
57594;BME280;43423;46.510;6.686;2023-07-13T04:19:09;96548.63;;;20.55;78.53
57594;BME280;43423;46.510;6.686;2023-07-13T04:21:36;96549.19;;;20.54;77.46
57594;BME280;43423;46.510;6.686;2023-07-13T04:24:02;96546.91;;;20.05;79.81
57594;BME280;43423;46.510;6.686;2023-07-13T04:26:30;96544.44;;;20.15;80.05
57594;BME280;43423;46.510;6.686;2023-07-13T04:28:56;96540.41;;;19.89;80.14
57594;BME280;43423;46.510;6.686;2023-07-13T04:31:22;96541.13;;;20.03;80.09
57594;BME280;43423;46.510;6.686;2023-07-13T04:33:48;96544.97;;;20.13;79.40
57594;BME280;43423;46.510;6.686;2023-07-13T04:36:14;96553.09;;;19.77;80.37
57594;BME280;43423;46.510;6.686;2023-07-13T04:38:39;96555.03;;;19.69;80.73
57594;BME280;43423;46.510;6.686;2023-07-13T04:41:07;96561.13;;;19.80;82.19
57594;BME280;43423;46.510;6.686;2023-07-13T04:43:33;96554.50;;;19.57;85.17
57594;BME280;43423;46.510;6.686;2023-07-13T04:46:10;96563.50;;;19.63;86.82
57594;BME280;43423;46.510;6.686;2023-07-13T04:48:37;96564.91;;;19.57;86.95
57594;BME280;43423;46.510;6.686;2023-07-13T04:51:03;96571.63;;;20.01;84.84
57594;BME280;43423;46.510;6.686;2023-07-13T04:53:30;96573.75;;;19.42;89.24
57594;BME280;43423;46.510;6.686;2023-07-13T04:55:56;96583.88;;;19.71;87.46
57594;BME280;43423;46.510;6.686;2023-07-13T04:58:22;96587.13;;;19.75;87.20
57594;BME280;43423;46.510;6.686;2023-07-13T05:00:48;96586.78;;;19.92;86.24
57594;BME280;43423;46.510;6.686;2023-07-13T05:03:14;96579.16;;;19.66;88.07
57594;BME280;43423;46.510;6.686;2023-07-13T05:05:39;96582.16;;;19.55;89.38
57594;BME280;43423;46.510;6.686;2023-07-13T05:08:05;96584.50;;;19.51;89.20
57594;BME280;43423;46.510;6.686;2023-07-13T05:10:33;96580.72;;;19.22;90.41
57594;BME280;43423;46.510;6.686;2023-07-13T05:12:59;96584.06;;;19.20;90.76
57594;BME280;43423;46.510;6.686;2023-07-13T05:15:24;96591.66;;;19.33;89.69
57594;BME280;43423;46.510;6.686;2023-07-13T05:17:50;96593.78;;;19.59;87.96
57594;BME280;43423;46.510;6.686;2023-07-13T05:20:17;96601.06;;;19.62;86.46
57594;BME280;43423;46.510;6.686;2023-07-13T05:22:43;96603.75;;;19.68;85.76
57594;BME280;43423;46.510;6.686;2023-07-13T05:25:09;96595.97;;;19.47;86.91
57594;BME280;43423;46.510;6.686;2023-07-13T05:27:35;96607.81;;;19.80;85.63
57594;BME280;43423;46.510;6.686;2023-07-13T05:30:02;96610.81;;;19.82;84.86
57594;BME280;43423;46.510;6.686;2023-07-13T05:32:28;96603.31;;;19.77;84.47
57594;BME280;43423;46.510;6.686;2023-07-13T05:34:54;96597.06;;;19.58;85.91
57594;BME280;43423;46.510;6.686;2023-07-13T05:37:19;96601.72;;;19.68;87.25
57594;BME280;43423;46.510;6.686;2023-07-13T05:39:45;96608.78;;;19.96;87.89
57594;BME280;43423;46.510;6.686;2023-07-13T05:42:11;96596.53;;;19.99;87.59
57594;BME280;43423;46.510;6.686;2023-07-13T05:44:36;96601.03;;;20.02;89.15
57594;BME280;43423;46.510;6.686;2023-07-13T05:47:02;96598.25;;;20.15;87.68
57594;BME280;43423;46.510;6.686;2023-07-13T05:49:28;96605.97;;;19.96;88.17
57594;BME280;43423;46.510;6.686;2023-07-13T05:51:55;96610.03;;;19.55;88.86
57594;BME280;43423;46.510;6.686;2023-07-13T05:54:21;96613.91;;;19.65;88.46
57594;BME280;43423;46.510;6.686;2023-07-13T05:56:47;96607.06;;;19.79;88.59
57594;BME280;43423;46.510;6.686;2023-07-13T05:59:12;96611.75;;;19.45;92.00
57594;BME280;43423;46.510;6.686;2023-07-13T06:01:38;96615.25;;;19.32;91.00
57594;BME280;43423;46.510;6.686;2023-07-13T06:04:04;96615.38;;;19.40;91.26
57594;BME280;43423;46.510;6.686;2023-07-13T06:06:30;96615.03;;;19.30;91.96
57594;BME280;43423;46.510;6.686;2023-07-13T06:08:55;96623.28;;;19.22;89.83
57594;BME280;43423;46.510;6.686;2023-07-13T06:11:23;96635.38;;;19.57;90.21
57594;BME280;43423;46.510;6.686;2023-07-13T06:13:50;96637.22;;;20.07;88.68
57594;BME280;43423;46.510;6.686;2023-07-13T06:16:16;96637.72;;;19.66;92.94
57594;BME280;43423;46.510;6.686;2023-07-13T06:18:42;96650.84;;;19.26;90.35
57594;BME280;43423;46.510;6.686;2023-07-13T06:21:16;96650.13;;;19.39;90.01
57594;BME280;43423;46.510;6.686;2023-07-13T06:23:44;96652.28;;;19.46;89.58
57594;BME280;43423;46.510;6.686;2023-07-13T06:26:10;96659.09;;;19.64;90.93
57594;BME280;43423;46.510;6.686;2023-07-13T06:28:37;96666.59;;;19.23;95.40
57594;BME280;43423;46.510;6.686;2023-07-13T06:31:09;96684.47;;;18.83;94.56
57594;BME280;43423;46.510;6.686;2023-07-13T06:33:35;96686.63;;;18.52;96.59
57594;BME280;43423;46.510;6.686;2023-07-13T06:36:02;96690.41;;;18.74;97.34
57594;BME280;43423;46.510;6.686;2023-07-13T06:38:28;96678.63;;;18.62;100.00
57594;BME280;43423;46.510;6.686;2023-07-13T06:40:53;96665.84;;;18.91;100.00
57594;BME280;43423;46.510;6.686;2023-07-13T06:43:19;96665.72;;;19.15;99.97
57594;BME280;43423;46.510;6.686;2023-07-13T06:45:46;96688.06;;;19.29;99.80
57594;BME280;43423;46.510;6.686;2023-07-13T06:48:14;96689.31;;;19.14;96.55
57594;BME280;43423;46.510;6.686;2023-07-13T06:50:41;96680.44;;;18.97;97.24
57594;BME280;43423;46.510;6.686;2023-07-13T06:53:07;96679.78;;;18.72;100.00
57594;BME280;43423;46.510;6.686;2023-07-13T06:55:33;96677.59;;;18.84;100.00
57594;BME280;43423;46.510;6.686;2023-07-13T06:57:58;96689.47;;;19.35;98.28
57594;BME280;43423;46.510;6.686;2023-07-13T07:00:24;96684.19;;;19.64;98.38
57594;BME280;43423;46.510;6.686;2023-07-13T07:02:49;96689.63;;;19.56;95.39
57594;BME280;43423;46.510;6.686;2023-07-13T07:05:15;96688.72;;;19.80;98.38
57594;BME280;43423;46.510;6.686;2023-07-13T07:07:41;96675.41;;;19.28;94.32
57594;BME280;43423;46.510;6.686;2023-07-13T07:10:07;96689.50;;;19.16;99.76
57594;BME280;43423;46.510;6.686;2023-07-13T07:12:32;96688.41;;;18.87;100.00
57594;BME280;43423;46.510;6.686;2023-07-13T07:14:58;96688.59;;;18.76;100.00
57594;BME280;43423;46.510;6.686;2023-07-13T07:17:23;96705.59;;;18.91;100.00
57594;BME280;43423;46.510;6.686;2023-07-13T07:19:50;96706.22;;;18.65;100.00
57594;BME280;43423;46.510;6.686;2023-07-13T07:22:16;96713.88;;;18.78;100.00
57594;BME280;43423;46.510;6.686;2023-07-13T07:24:41;96712.59;;;18.79;100.00
57594;BME280;43423;46.510;6.686;2023-07-13T07:27:07;96698.34;;;19.02;100.00
57594;BME280;43423;46.510;6.686;2023-07-13T07:29:32;96702.22;;;18.80;100.00
57594;BME280;43423;46.510;6.686;2023-07-13T07:31:59;96705.00;;;18.80;100.00
57594;BME280;43423;46.510;6.686;2023-07-13T07:34:25;96697.47;;;18.93;100.00
57594;BME280;43423;46.510;6.686;2023-07-13T07:36:51;96698.59;;;18.85;100.00
57594;BME280;43423;46.510;6.686;2023-07-13T07:39:16;96704.84;;;18.91;100.00
57594;BME280;43423;46.510;6.686;2023-07-13T07:41:42;96707.31;;;19.13;100.00
57594;BME280;43423;46.510;6.686;2023-07-13T07:44:08;96694.41;;;19.10;100.00
57594;BME280;43423;46.510;6.686;2023-07-13T07:46:35;96691.75;;;19.50;100.00
57594;BME280;43423;46.510;6.686;2023-07-13T07:49:01;96690.31;;;19.30;98.23
57594;BME280;43423;46.510;6.686;2023-07-13T07:51:27;96697.06;;;19.21;100.00
57594;BME280;43423;46.510;6.686;2023-07-13T07:53:52;96691.81;;;19.31;100.00
57594;BME280;43423;46.510;6.686;2023-07-13T07:56:18;96703.09;;;19.39;99.00
57594;BME280;43423;46.510;6.686;2023-07-13T07:58:43;96706.56;;;19.45;97.96
57594;BME280;43423;46.510;6.686;2023-07-13T08:01:10;96699.22;;;19.29;99.03
57594;BME280;43423;46.510;6.686;2023-07-13T08:03:35;96696.81;;;19.19;97.24
57594;BME280;43423;46.510;6.686;2023-07-13T08:06:01;96695.69;;;19.41;99.80
57594;BME280;43423;46.510;6.686;2023-07-13T08:08:26;96702.38;;;19.19;95.13
57594;BME280;43423;46.510;6.686;2023-07-13T08:10:52;96708.56;;;19.63;97.34
57594;BME280;43423;46.510;6.686;2023-07-13T08:13:18;96715.56;;;19.51;95.00
57594;BME280;43423;46.510;6.686;2023-07-13T08:15:46;96719.34;;;19.53;95.75
57594;BME280;43423;46.510;6.686;2023-07-13T08:18:11;96728.91;;;19.58;92.65
57594;BME280;43423;46.510;6.686;2023-07-13T08:20:38;96721.78;;;19.89;94.32
57594;BME280;43423;46.510;6.686;2023-07-13T08:23:05;96717.19;;;19.46;95.17
57594;BME280;43423;46.510;6.686;2023-07-13T08:25:30;96721.53;;;19.29;95.33
57594;BME280;43423;46.510;6.686;2023-07-13T08:27:56;96727.38;;;19.44;95.65
57594;BME280;43423;46.510;6.686;2023-07-13T08:30:21;96715.88;;;19.15;94.64
57594;BME280;43423;46.510;6.686;2023-07-13T08:32:47;96726.81;;;19.45;97.65
57594;BME280;43423;46.510;6.686;2023-07-13T08:35:13;96730.88;;;19.63;96.17
57594;BME280;43423;46.510;6.686;2023-07-13T08:37:39;96725.94;;;19.69;93.59
57594;BME280;43423;46.510;6.686;2023-07-13T08:40:05;96723.72;;;19.81;93.90
57594;BME280;43423;46.510;6.686;2023-07-13T08:42:46;96726.75;;;20.23;90.54
57594;BME280;43423;46.510;6.686;2023-07-13T08:45:21;96713.75;;;19.99;92.12
57594;BME280;43423;46.510;6.686;2023-07-13T08:47:52;96729.84;;;20.06;93.75
57594;BME280;43423;46.510;6.686;2023-07-13T08:50:23;96730.28;;;19.97;91.66
57594;BME280;43423;46.510;6.686;2023-07-13T08:52:49;96726.66;;;20.15;91.44
57594;BME280;43423;46.510;6.686;2023-07-13T08:55:27;96727.59;;;19.91;94.85
57594;BME280;43423;46.510;6.686;2023-07-13T08:58:10;96739.19;;;20.35;91.00
57594;BME280;43423;46.510;6.686;2023-07-13T09:07:14;96741.06;;;19.61;92.53
57594;BME280;43423;46.510;6.686;2023-07-13T09:09:59;96734.16;;;19.94;91.41
57594;BME280;43423;46.510;6.686;2023-07-13T09:12:40;96738.75;;;19.91;88.59
57594;BME280;43423;46.510;6.686;2023-07-13T09:15:23;96736.50;;;20.29;88.34
57594;BME280;43423;46.510;6.686;2023-07-13T09:17:51;96729.28;;;20.87;89.37
57594;BME280;43423;46.510;6.686;2023-07-13T09:23:26;96722.63;;;20.77;83.70
57594;BME280;43423;46.510;6.686;2023-07-13T09:26:01;96732.31;;;20.76;85.93
57594;BME280;43423;46.510;6.686;2023-07-13T09:28:32;96737.78;;;20.81;87.67
57594;BME280;43423;46.510;6.686;2023-07-13T09:31:13;96739.94;;;20.35;86.87
57594;BME280;43423;46.510;6.686;2023-07-13T09:33:39;96733.31;;;19.99;87.07
57594;BME280;43423;46.510;6.686;2023-07-13T09:36:19;96728.16;;;20.16;88.95
57594;BME280;43423;46.510;6.686;2023-07-13T09:38:46;96733.50;;;20.67;85.58
57594;BME280;43423;46.510;6.686;2023-07-13T09:41:23;96733.50;;;20.67;86.39
57594;BME280;43423;46.510;6.686;2023-07-13T09:46:34;96744.13;;;20.29;85.91
57594;BME280;43423;46.510;6.686;2023-07-13T09:49:01;96743.94;;;20.53;84.65
57594;BME280;43423;46.510;6.686;2023-07-13T09:51:26;96745.88;;;20.45;85.27
57594;BME280;43423;46.510;6.686;2023-07-13T09:53:52;96750.47;;;20.43;82.55
57594;BME280;43423;46.510;6.686;2023-07-13T09:56:27;96748.84;;;20.21;83.94
57594;BME280;43423;46.510;6.686;2023-07-13T09:58:55;96754.34;;;20.66;83.82
57594;BME280;43423;46.510;6.686;2023-07-13T10:01:36;96758.19;;;20.76;83.35
57594;BME280;43423;46.510;6.686;2023-07-13T10:04:13;96760.97;;;20.89;81.87
57594;BME280;43423;46.510;6.686;2023-07-13T10:06:40;96762.47;;;20.90;82.41
57594;BME280;43423;46.510;6.686;2023-07-13T10:09:09;96760.78;;;20.74;81.37
57594;BME280;43423;46.510;6.686;2023-07-13T10:11:36;96764.34;;;21.09;84.74
57594;BME280;43423;46.510;6.686;2023-07-13T10:14:16;96766.13;;;20.99;82.81
57594;BME280;43423;46.510;6.686;2023-07-13T10:16:44;96777.25;;;21.25;81.50
57594;BME280;43423;46.510;6.686;2023-07-13T10:19:18;96772.44;;;21.67;85.09
57594;BME280;43423;46.510;6.686;2023-07-13T10:21:57;96778.59;;;21.66;78.88
57594;BME280;43423;46.510;6.686;2023-07-13T10:24:35;96774.91;;;21.50;78.88
57594;BME280;43423;46.510;6.686;2023-07-13T10:29:47;96760.69;;;21.27;79.61
57594;BME280;43423;46.510;6.686;2023-07-13T10:32:14;96773.13;;;21.60;80.39
57594;BME280;43423;46.510;6.686;2023-07-13T10:34:43;96768.84;;;21.25;76.26
57594;BME280;43423;46.510;6.686;2023-07-13T10:37:18;96769.47;;;21.31;76.37
57594;BME280;43423;46.510;6.686;2023-07-13T10:39:46;96777.78;;;21.58;76.34
57594;BME280;43423;46.510;6.686;2023-07-13T10:42:15;96773.47;;;21.78;75.65
57594;BME280;43423;46.510;6.686;2023-07-13T10:44:43;96774.22;;;21.57;74.68
57594;BME280;43423;46.510;6.686;2023-07-13T10:47:13;96773.41;;;21.91;76.55
57594;BME280;43423;46.510;6.686;2023-07-13T10:49:41;96780.06;;;21.88;74.85
57594;BME280;43423;46.510;6.686;2023-07-13T10:52:50;96782.75;;;22.43;73.48
57594;BME280;43423;46.510;6.686;2023-07-13T10:58:20;96787.00;;;22.65;70.04
57594;BME280;43423;46.510;6.686;2023-07-13T11:03:32;96789.38;;;22.89;69.27
57594;BME280;43423;46.510;6.686;2023-07-13T11:06:09;96785.16;;;22.75;65.79
57594;BME280;43423;46.510;6.686;2023-07-13T11:08:53;96786.72;;;23.27;68.08
57594;BME280;43423;46.510;6.686;2023-07-13T11:18:46;96798.63;;;22.69;70.34
57594;BME280;43423;46.510;6.686;2023-07-13T11:21:17;96790.63;;;22.80;66.46
57594;BME280;43423;46.510;6.686;2023-07-13T11:23:51;96783.75;;;23.33;71.36
57594;BME280;43423;46.510;6.686;2023-07-13T11:26:40;96792.72;;;23.31;64.05
57594;BME280;43423;46.510;6.686;2023-07-13T11:29:33;96789.47;;;23.12;65.94
57594;BME280;43423;46.510;6.686;2023-07-13T11:32:22;96785.34;;;23.13;66.26
57594;BME280;43423;46.510;6.686;2023-07-13T11:34:48;96779.84;;;23.51;65.06
57594;BME280;43423;46.510;6.686;2023-07-13T11:37:16;96779.22;;;23.15;64.11
57594;BME280;43423;46.510;6.686;2023-07-13T11:39:45;96771.22;;;23.34;64.61
57594;BME280;43423;46.510;6.686;2023-07-13T11:42:14;96768.78;;;23.46;63.19
57594;BME280;43423;46.510;6.686;2023-07-13T11:44:48;96769.72;;;23.33;64.20
57594;BME280;43423;46.510;6.686;2023-07-13T11:47:20;96763.66;;;23.13;64.41
57594;BME280;43423;46.510;6.686;2023-07-13T11:49:54;96768.44;;;23.49;62.42
57594;BME280;43423;46.510;6.686;2023-07-13T11:52:33;96753.66;;;23.49;64.38
57594;BME280;43423;46.510;6.686;2023-07-13T11:55:00;96763.75;;;23.44;63.89
57594;BME280;43423;46.510;6.686;2023-07-13T11:57:38;96756.91;;;22.65;63.68
57594;BME280;43423;46.510;6.686;2023-07-13T12:00:15;96750.66;;;23.31;65.19
57594;BME280;43423;46.510;6.686;2023-07-13T12:02:44;96751.44;;;23.47;62.71
57594;BME280;43423;46.510;6.686;2023-07-13T12:05:13;96732.75;;;23.73;62.34
57594;BME280;43423;46.510;6.686;2023-07-13T12:07:40;96737.81;;;23.89;62.66
57594;BME280;43423;46.510;6.686;2023-07-13T12:52:12;96703.88;;;23.26;53.92
57594;BME280;43423;46.510;6.686;2023-07-13T12:56:27;96703.31;;;23.43;52.36
57594;BME280;43423;46.510;6.686;2023-07-13T12:58:58;96711.72;;;23.28;48.44
57594;BME280;43423;46.510;6.686;2023-07-13T13:01:29;96713.75;;;23.12;48.84
57594;BME280;43423;46.510;6.686;2023-07-13T13:04:01;96708.53;;;23.16;50.94
57594;BME280;43423;46.510;6.686;2023-07-13T13:44:36;96714.75;;;24.21;44.52
57594;BME280;43423;46.510;6.686;2023-07-13T13:47:02;96699.03;;;24.18;44.48
57594;BME280;43423;46.510;6.686;2023-07-13T13:49:30;96701.22;;;24.43;45.79
57594;BME280;43423;46.510;6.686;2023-07-13T13:51:57;96699.78;;;24.11;43.92
57594;BME280;43423;46.510;6.686;2023-07-13T13:54:25;96688.06;;;24.53;43.15
57594;BME280;43423;46.510;6.686;2023-07-13T13:56:52;96692.88;;;24.68;44.41
57594;BME280;43423;46.510;6.686;2023-07-13T13:59:18;96696.31;;;24.59;44.47
57594;BME280;43423;46.510;6.686;2023-07-13T14:01:47;96696.34;;;24.43;43.35
57594;BME280;43423;46.510;6.686;2023-07-13T14:04:20;96694.59;;;24.63;43.03
57594;BME280;43423;46.510;6.686;2023-07-13T14:06:47;96694.78;;;24.65;43.12
57594;BME280;43423;46.510;6.686;2023-07-13T14:09:15;96703.03;;;24.63;46.77
57594;BME280;43423;46.510;6.686;2023-07-13T14:11:42;96691.88;;;24.33;45.69
57594;BME280;43423;46.510;6.686;2023-07-13T14:14:14;96692.50;;;23.78;43.02
57594;BME280;43423;46.510;6.686;2023-07-13T14:16:41;96694.56;;;23.70;44.08
57594;BME280;43423;46.510;6.686;2023-07-13T14:19:10;96696.78;;;23.48;45.87
57594;BME280;43423;46.510;6.686;2023-07-13T14:21:37;96689.50;;;23.60;49.72
57594;BME280;43423;46.510;6.686;2023-07-13T14:24:03;96683.69;;;24.04;47.43
57594;BME280;43423;46.510;6.686;2023-07-13T14:26:33;96696.09;;;23.71;44.74
57594;BME280;43423;46.510;6.686;2023-07-13T14:29:01;96684.63;;;23.99;41.08
57594;BME280;43423;46.510;6.686;2023-07-13T14:31:27;96690.03;;;24.12;45.27
57594;BME280;43423;46.510;6.686;2023-07-13T14:33:56;96685.16;;;24.20;43.57
57594;BME280;43423;46.510;6.686;2023-07-13T14:36:37;96682.91;;;24.34;42.27
57594;BME280;43423;46.510;6.686;2023-07-13T14:39:21;96688.31;;;24.24;42.91
57594;BME280;43423;46.510;6.686;2023-07-13T14:41:53;96686.63;;;24.21;42.44
57594;BME280;43423;46.510;6.686;2023-07-13T14:44:25;96686.78;;;24.31;45.52
57594;BME280;43423;46.510;6.686;2023-07-13T14:46:52;96682.34;;;24.13;45.63
57594;BME280;43423;46.510;6.686;2023-07-13T14:49:37;96683.25;;;24.31;50.47
57594;BME280;43423;46.510;6.686;2023-07-13T14:52:19;96688.50;;;24.27;44.97
57594;BME280;43423;46.510;6.686;2023-07-13T14:54:46;96696.94;;;24.34;48.69
57594;BME280;43423;46.510;6.686;2023-07-13T14:57:13;96689.66;;;24.01;47.97